Time;durP1;ratioP1;P1;durP2;ratioP2;P2;SDS_P1;SDS_P2;PMS_P1;PMS_P2;Temp;Humidity;BMP_temperature;BMP_pressure;BME280_temperature;BME280_humidity;BME280_pressure;Samples;Min_cycle;Max_cycle;Signal;HPM_P1;HPM_P2
2023/08/08 00:00:27;;;;;;;0.10;0.10;;;;;;;11.89;78.39;97401.22;5035865;28;20045;-70
2023/08/08 00:02:54;;;;;;;0.20;0.20;;;;;;;11.88;78.27;97400.38;5034081;28;20037;-70
2023/08/08 00:05:24;;;;;;;0.13;0.13;;;;;;;11.87;78.50;97398.72;5048905;28;20041;-71
2023/08/08 00:07:51;;;;;;;0.17;0.17;;;;;;;11.85;78.31;97395.44;5037097;28;20042;-71
2023/08/08 00:10:19;;;;;;;0.20;0.20;;;;;;;11.83;79.05;97389.50;5047590;28;20128;-71
2023/08/08 00:12:47;;;;;;;0.20;0.20;;;;;;;11.82;78.42;97381.69;5035410;28;20041;-70
2023/08/08 00:15:14;;;;;;;0.10;0.10;;;;;;;11.82;78.61;97385.19;5032016;28;20046;-71
2023/08/08 00:17:42;;;;;;;0.20;0.20;;;;;;;11.77;78.37;97379.63;5027703;28;20046;-72
2023/08/08 00:20:11;;;;;;;0.10;0.10;;;;;;;11.80;78.46;97389.09;5031206;28;20383;-71
2023/08/08 00:22:40;;;;;;;0.10;0.10;;;;;;;11.72;78.18;97392.75;5032348;28;20040;-72
2023/08/08 00:25:08;;;;;;;0.20;0.20;;;;;;;11.73;78.30;97392.53;5034081;28;20061;-71
2023/08/08 00:27:41;;;;;;;0.20;0.20;;;;;;;11.70;78.10;97384.94;5049099;28;20055;-71
2023/08/08 00:30:11;;;;;;;0.32;0.32;;;;;;;11.76;78.09;97402.84;5032516;28;20066;-71
2023/08/08 00:32:39;;;;;;;0.20;0.20;;;;;;;11.67;78.56;97403.25;5028332;28;20087;-71
2023/08/08 00:35:07;;;;;;;0.13;0.13;;;;;;;11.69;78.53;97394.00;5031891;28;20096;-71
2023/08/08 00:37:35;;;;;;;0.20;0.20;;;;;;;11.65;77.92;97398.09;5031811;28;20053;-71
2023/08/08 00:40:06;;;;;;;0.20;0.20;;;;;;;11.65;78.09;97391.94;5031656;28;20053;-71
2023/08/08 00:42:34;;;;;;;0.20;0.20;;;;;;;11.63;77.70;97392.13;5036088;28;20064;-71
2023/08/08 00:45:03;;;;;;;0.20;0.20;;;;;;;11.61;77.61;97401.41;5047021;28;20037;-71
2023/08/08 00:47:32;;;;;;;0.20;0.20;;;;;;;11.64;77.65;97398.28;5031700;28;20045;-71
2023/08/08 00:50:02;;;;;;;0.10;0.10;;;;;;;11.66;77.52;97394.41;5030320;28;20175;-72
2023/08/08 00:52:30;;;;;;;0.10;0.10;;;;;;;11.72;77.45;97385.56;5028066;28;20041;-70
2023/08/08 00:54:58;;;;;;;0.20;0.20;;;;;;;11.72;77.46;97382.91;5029593;28;20069;-72
2023/08/08 00:57:28;;;;;;;0.10;0.10;;;;;;;11.74;77.59;97388.00;5029296;28;20056;-71
2023/08/08 00:59:55;;;;;;;0.20;0.20;;;;;;;11.68;77.84;97383.50;5041963;28;20128;-72
2023/08/08 01:02:23;;;;;;;0.10;0.10;;;;;;;11.69;77.98;97385.16;5038251;28;20410;-71
2023/08/08 01:04:51;;;;;;;0.10;0.10;;;;;;;11.75;77.95;97379.00;5042652;28;20065;-69
2023/08/08 01:07:26;;;;;;;0.20;0.20;;;;;;;11.60;78.00;97386.41;5024548;28;20049;-69
2023/08/08 01:09:56;;;;;;;0.20;0.20;;;;;;;11.49;77.90;97395.03;5031093;28;20041;-71
2023/08/08 01:12:25;;;;;;;0.10;0.10;;;;;;;11.47;78.26;97389.88;5029632;28;20037;-69
2023/08/08 01:14:55;;;;;;;0.10;0.10;;;;;;;11.42;78.25;97389.66;5031479;28;20041;-69
2023/08/08 01:17:23;;;;;;;0.10;0.10;;;;;;;11.39;78.21;97388.25;5030116;28;20071;-70
2023/08/08 01:19:52;;;;;;;0.20;0.20;;;;;;;11.40;77.94;97384.53;5029855;28;20095;-71
2023/08/08 01:22:25;;;;;;;0.13;0.13;;;;;;;11.38;77.60;97386.59;5030840;28;20052;-71
2023/08/08 01:24:55;;;;;;;0.20;0.20;;;;;;;11.36;78.02;97388.66;5031223;28;20128;-71
2023/08/08 01:27:23;;;;;;;0.17;0.17;;;;;;;11.36;77.70;97396.66;5029334;28;20132;-72
2023/08/08 01:29:51;;;;;;;0.10;0.10;;;;;;;11.37;77.66;97386.78;5030587;28;20128;-72
2023/08/08 01:32:19;;;;;;;0.13;0.13;;;;;;;11.40;77.43;97387.22;5027089;28;20135;-72
2023/08/08 01:34:46;;;;;;;0.10;0.10;;;;;;;11.36;77.77;97388.66;5031290;28;20076;-72
2023/08/08 01:37:18;;;;;;;0.20;0.20;;;;;;;11.39;77.59;97388.25;5027385;28;20156;-71
2023/08/08 01:39:47;;;;;;;0.13;0.13;;;;;;;11.32;77.61;97384.72;5040692;28;20052;-72
2023/08/08 01:42:17;;;;;;;0.38;0.38;;;;;;;11.29;78.19;97384.31;5018564;28;20411;-71
2023/08/08 01:44:45;;;;;;;0.10;0.10;;;;;;;11.28;78.42;97383.50;5026174;28;20428;-73
2023/08/08 01:47:12;;;;;;;0.20;0.20;;;;;;;11.26;78.33;97387.41;5029913;28;20045;-72
2023/08/08 01:49:40;;;;;;;0.20;0.20;;;;;;;11.17;78.91;97375.25;5029376;28;20049;-72
2023/08/08 01:52:08;;;;;;;0.15;0.15;;;;;;;11.11;79.10;97373.41;5028298;28;20124;-71
2023/08/08 01:54:35;;;;;;;0.10;0.10;;;;;;;11.10;79.07;97375.28;5044751;28;20136;-71
2023/08/08 01:57:04;;;;;;;0.10;0.10;;;;;;;11.11;79.18;97376.09;5037863;28;20053;-71
2023/08/08 01:59:33;;;;;;;0.10;0.10;;;;;;;11.14;79.18;97368.47;5029371;28;20498;-71
2023/08/08 02:02:01;;;;;;;0.20;0.20;;;;;;;11.07;79.70;97370.31;5023590;28;20076;-72
2023/08/08 02:04:29;;;;;;;0.20;0.20;;;;;;;11.08;79.67;97381.84;5035284;28;20060;-70
2023/08/08 02:06:56;;;;;;;0.20;0.20;;;;;;;11.07;79.97;97373.00;5041728;28;20043;-70
2023/08/08 02:09:26;;;;;;;0.20;0.20;;;;;;;11.08;80.25;97376.50;5030503;28;20042;-72
2023/08/08 02:11:54;;;;;;;0.20;0.20;;;;;;;11.05;80.64;97375.03;5026159;28;20113;-72
2023/08/08 02:14:22;;;;;;;0.50;0.50;;;;;;;11.06;80.51;97376.69;5033150;28;20409;-72
2023/08/08 02:16:51;;;;;;;0.03;0.03;;;;;;;11.05;80.74;97367.03;5034096;28;20051;-72
2023/08/08 02:19:18;;;;;;;0.20;0.20;;;;;;;11.05;80.70;97364.34;5024060;28;20203;-71
2023/08/08 02:21:46;;;;;;;0.28;0.28;;;;;;;11.10;80.67;97375.28;5037266;28;20088;-72
2023/08/08 02:24:14;;;;;;;0.20;0.20;;;;;;;11.10;80.50;97371.78;5042805;28;20045;-72
2023/08/08 02:26:41;;;;;;;0.50;0.50;;;;;;;11.09;80.74;97367.47;5034829;28;20473;-72
2023/08/08 02:29:09;;;;;;;0.15;0.15;;;;;;;11.10;80.66;97375.28;5028962;28;20550;-72
2023/08/08 02:31:37;;;;;;;0.10;0.10;;;;;;;11.04;80.86;97378.72;5030330;28;20045;-72
2023/08/08 02:34:06;;;;;;;0.13;0.13;;;;;;;11.08;80.63;97379.97;5034630;28;20076;-71
2023/08/08 02:36:34;;;;;;;0.47;0.47;;;;;;;10.97;81.21;97369.91;5044070;28;20510;-71
2023/08/08 02:39:03;;;;;;;0.10;0.10;;;;;;;10.93;81.31;97371.31;5036090;28;20172;-71
2023/08/08 02:41:30;;;;;;;0.30;0.30;;;;;;;10.95;81.35;97358.59;5032221;28;20053;-71
2023/08/08 02:43:58;;;;;;;0.13;0.13;;;;;;;10.95;81.89;97361.25;5032884;28;20049;-72
2023/08/08 02:46:26;;;;;;;0.30;0.30;;;;;;;10.98;81.63;97369.69;5025016;28;20038;-72
2023/08/08 02:48:54;;;;;;;0.10;0.10;;;;;;;10.90;81.78;97355.72;5027531;28;20069;-72
2023/08/08 02:51:23;;;;;;;0.13;0.13;;;;;;;10.92;81.96;97359.81;5039074;28;20113;-72
2023/08/08 02:53:50;;;;;;;0.17;0.17;;;;;;;11.04;81.51;97368.88;5033835;28;20163;-69
2023/08/08 02:56:19;;;;;;;0.20;0.20;;;;;;;10.99;81.47;97357.16;5029474;28;20049;-69
2023/08/08 02:58:46;;;;;;;0.13;0.13;;;;;;;11.01;81.68;97352.41;5032391;28;20147;-70
2023/08/08 03:01:15;;;;;;;0.20;0.20;;;;;;;10.95;82.02;97358.59;5029001;28;20591;-71
2023/08/08 03:03:45;;;;;;;0.20;0.20;;;;;;;10.93;82.10;97360.63;5035627;28;20140;-70
2023/08/08 03:06:14;;;;;;;0.30;0.30;;;;;;;10.89;82.27;97351.41;5047327;28;20050;-71
2023/08/08 03:08:43;;;;;;;0.20;0.20;;;;;;;10.92;82.46;97349.13;5030090;28;20045;-71
2023/08/08 03:11:11;;;;;;;0.10;0.10;;;;;;;10.95;82.45;97361.25;5025653;28;20513;-70
2023/08/08 03:13:39;;;;;;;0.10;0.10;;;;;;;10.95;82.60;97354.06;5029178;28;20111;-71
2023/08/08 03:16:07;;;;;;;0.20;0.20;;;;;;;10.98;82.58;97352.84;5029940;28;20080;-70
2023/08/08 03:18:35;;;;;;;0.20;0.20;;;;;;;11.07;82.10;97353.47;5032961;28;20044;-71
2023/08/08 03:21:03;;;;;;;0.20;0.20;;;;;;;11.06;82.46;97354.50;5038022;28;20054;-72
2023/08/08 03:23:34;;;;;;;0.20;0.20;;;;;;;11.17;82.24;97356.56;5025334;28;20042;-72
2023/08/08 03:26:03;;;;;;;0.30;0.30;;;;;;;11.11;82.43;97358.19;5033527;28;20469;-71
2023/08/08 03:28:30;;;;;;;0.20;0.20;;;;;;;11.10;82.44;97353.91;5032927;28;20124;-71
2023/08/08 03:30:58;;;;;;;0.20;0.20;;;;;;;11.14;82.46;97362.31;5027323;28;20128;-71
2023/08/08 03:33:28;;;;;;;0.20;0.20;;;;;;;11.10;82.43;97356.56;5026042;28;20041;-71
2023/08/08 03:35:55;;;;;;;0.20;0.20;;;;;;;11.14;82.45;97352.44;5033169;28;20138;-71
2023/08/08 03:38:23;;;;;;;0.10;0.10;;;;;;;11.18;82.37;97351.03;5034370;28;20049;-71
2023/08/08 03:40:51;;;;;;;0.20;0.20;;;;;;;11.19;82.43;97350.00;5032094;28;20140;-71
2023/08/08 03:43:20;;;;;;;0.10;0.10;;;;;;;11.18;82.26;97358.22;5031584;28;20045;-71
2023/08/08 03:45:48;;;;;;;0.20;0.20;;;;;;;11.16;82.42;97358.41;5033104;28;20044;-71
2023/08/08 03:48:16;;;;;;;0.10;0.10;;;;;;;11.16;82.57;97349.56;5024461;28;20073;-71
2023/08/08 03:50:46;;;;;;;0.15;0.15;;;;;;;11.19;82.58;97351.84;5032733;28;20099;-71
2023/08/08 03:53:13;;;;;;;0.20;0.20;;;;;;;11.16;82.53;97347.72;5029691;28;20046;-71
2023/08/08 03:55:41;;;;;;;0.30;0.30;;;;;;;11.15;82.86;97345.25;5052851;28;20068;-71
2023/08/08 03:58:09;;;;;;;0.20;0.20;;;;;;;11.14;82.56;97341.75;5032350;28;20125;-71
2023/08/08 04:00:39;;;;;;;0.20;0.20;;;;;;;11.13;82.96;97350.81;5032271;28;20503;-71
2023/08/08 04:03:07;;;;;;;0.10;0.10;;;;;;;11.16;82.97;97345.06;5024617;28;20045;-71
2023/08/08 04:05:35;;;;;;;0.28;0.28;;;;;;;11.19;82.92;97344.66;5044675;28;20103;-71
2023/08/08 04:08:02;;;;;;;0.32;0.32;;;;;;;11.25;82.63;97351.03;5034210;28;20417;-71
2023/08/08 04:10:31;;;;;;;0.20;0.20;;;;;;;11.21;83.00;97345.25;5031995;28;20045;-72
2023/08/08 04:12:58;;;;;;;0.43;0.43;;;;;;;11.19;82.83;97342.00;5028894;28;20076;-71
2023/08/08 04:15:26;;;;;;;0.22;0.22;;;;;;;11.16;83.16;97342.38;5031992;28;20077;-71
2023/08/08 04:17:55;;;;;;;0.10;0.10;;;;;;;11.15;83.06;97343.41;5030215;28;20103;-72
2023/08/08 04:20:23;;;;;;;0.10;0.10;;;;;;;11.21;83.15;97347.13;5044430;28;20045;-71
2023/08/08 04:22:51;;;;;;;0.17;0.17;;;;;;;11.23;82.84;97348.53;5028081;28;20045;-71
2023/08/08 04:25:19;;;;;;;0.13;0.13;;;;;;;11.23;82.92;97339.72;5029099;28;20641;-71
2023/08/08 04:27:47;;;;;;;0.15;0.15;;;;;;;11.23;82.91;97351.22;5025699;28;20037;-71
2023/08/08 04:30:14;;;;;;;0.20;0.20;;;;;;;11.23;82.98;97355.75;5024806;28;20508;-71
2023/08/08 04:32:42;;;;;;;0.20;0.20;;;;;;;11.27;82.90;97354.31;5031396;28;20047;-72
2023/08/08 04:35:11;;;;;;;0.15;0.15;;;;;;;11.32;82.74;97355.31;5028790;28;20061;-72
2023/08/08 04:37:39;;;;;;;0.20;0.20;;;;;;;11.35;83.06;97349.59;5045791;28;20112;-72
2023/08/08 04:40:09;;;;;;;0.20;0.20;;;;;;;11.48;83.23;97355.97;5020736;28;20116;-72
2023/08/08 04:42:36;;;;;;;0.20;0.20;;;;;;;11.50;83.09;97360.06;5031574;28;20037;-72
2023/08/08 04:45:05;;;;;;;0.20;0.20;;;;;;;11.49;82.15;97361.09;5030708;28;20053;-72
2023/08/08 04:47:33;;;;;;;0.20;0.20;;;;;;;11.47;82.49;97363.16;5029071;28;20052;-72
2023/08/08 04:50:01;;;;;;;0.40;0.40;;;;;;;11.47;82.39;97359.66;5031749;28;20417;-71
2023/08/08 04:52:30;;;;;;;0.20;0.20;;;;;;;11.39;82.68;97366.88;5031879;28;20037;-71
2023/08/08 04:54:57;;;;;;;0.17;0.17;;;;;;;11.44;82.66;97355.53;5032051;28;20103;-71
2023/08/08 04:57:25;;;;;;;0.20;0.20;;;;;;;11.48;82.43;97364.81;5031948;28;20048;-72
2023/08/08 04:59:53;;;;;;;0.10;0.10;;;;;;;11.59;82.11;97363.34;5030656;28;20402;-71
2023/08/08 05:02:20;;;;;;;0.30;0.30;;;;;;;11.56;82.21;97353.91;5032110;28;20037;-71
2023/08/08 05:04:49;;;;;;;0.20;0.20;;;;;;;11.56;81.94;97355.75;5034629;28;20052;-71
2023/08/08 05:07:17;;;;;;;0.15;0.15;;;;;;;11.55;82.14;97356.78;5029412;28;20073;-71
2023/08/08 05:09:46;;;;;;;0.20;0.20;;;;;;;11.62;82.40;97349.59;5033925;28;20069;-71
2023/08/08 05:12:14;;;;;;;0.17;0.17;;;;;;;11.68;82.16;97352.25;5031529;28;20120;-72
2023/08/08 05:14:41;;;;;;;0.40;0.40;;;;;;;11.72;81.94;97348.13;5031404;28;20392;-71
2023/08/08 05:17:09;;;;;;;0.20;0.20;;;;;;;11.79;81.67;97361.53;5031491;28;20041;-73
2023/08/08 05:19:37;;;;;;;0.10;0.10;;;;;;;11.92;81.27;97355.34;5031207;28;20046;-70
2023/08/08 05:22:05;;;;;;;0.10;0.10;;;;;;;11.91;81.64;97359.03;5031376;28;20713;-70
2023/08/08 05:24:33;;;;;;;0.20;0.20;;;;;;;11.93;81.31;97360.47;5031631;28;20044;-70
2023/08/08 05:27:03;;;;;;;0.20;0.20;;;;;;;11.94;81.03;97358.63;5030345;28;20649;-70
2023/08/08 05:29:31;;;;;;;0.20;0.20;;;;;;;11.99;81.10;97373.00;5030862;28;20151;-69
2023/08/08 05:31:58;;;;;;;0.13;0.13;;;;;;;12.00;81.38;97358.59;5031042;28;20050;-69
2023/08/08 05:34:26;;;;;;;0.20;0.20;;;;;;;12.06;81.29;97357.75;5030052;28;20048;-70
2023/08/08 05:36:54;;;;;;;0.20;0.20;;;;;;;12.05;81.14;97355.28;5030883;28;20045;-72
2023/08/08 05:39:41;;;;;;;0.20;0.20;;;;;;;12.04;81.01;97349.09;5030044;28;20052;-70
2023/08/08 05:42:10;;;;;;;0.20;0.20;;;;;;;12.07;80.92;97362.06;5031112;28;20124;-72
2023/08/08 05:44:38;;;;;;;0.20;0.20;;;;;;;12.01;80.72;97354.91;5030856;28;20046;-70
2023/08/08 05:47:06;;;;;;;0.30;0.30;;;;;;;12.00;81.05;97360.44;5017383;28;20041;-70
2023/08/08 05:49:34;;;;;;;0.20;0.20;;;;;;;12.02;80.54;97350.38;5032329;28;20053;-70
2023/08/08 05:52:02;;;;;;;0.20;0.20;;;;;;;12.01;81.09;97344.19;5036458;28;20045;-70
2023/08/08 05:54:30;;;;;;;0.20;0.20;;;;;;;12.04;80.80;97357.13;5032133;28;20145;-70
2023/08/08 05:56:58;;;;;;;0.22;0.22;;;;;;;12.13;80.85;97353.22;5035666;28;20045;-70
2023/08/08 05:59:27;;;;;;;0.20;0.20;;;;;;;12.13;80.76;97355.06;5035495;28;20112;-72
2023/08/08 06:01:55;;;;;;;0.20;0.20;;;;;;;12.13;80.49;97358.56;5036714;28;20421;-70
2023/08/08 06:04:22;;;;;;;0.10;0.10;;;;;;;12.17;80.46;97360.81;5036740;28;20046;-70
2023/08/08 06:06:50;;;;;;;0.20;0.20;;;;;;;12.18;80.24;97359.78;5037126;28;20065;-70
2023/08/08 06:09:17;;;;;;;0.20;0.20;;;;;;;12.22;79.95;97350.31;5027483;28;20041;-70
2023/08/08 06:11:45;;;;;;;0.20;0.20;;;;;;;12.19;80.41;97353.41;5034876;28;20042;-70
2023/08/08 06:14:13;;;;;;;0.10;0.10;;;;;;;12.15;80.46;97357.53;5034559;28;20042;-70
2023/08/08 06:16:42;;;;;;;0.20;0.20;;;;;;;12.23;80.41;97347.44;5034646;28;20112;-70
2023/08/08 06:19:10;;;;;;;0.20;0.20;;;;;;;12.24;80.21;97353.59;5034253;28;20103;-70
2023/08/08 06:21:37;;;;;;;0.13;0.13;;;;;;;12.23;80.34;97352.78;5034573;28;20442;-70
2023/08/08 06:24:05;;;;;;;0.20;0.20;;;;;;;12.27;80.25;97351.31;5034446;28;20046;-70
2023/08/08 06:26:33;;;;;;;0.15;0.15;;;;;;;12.29;80.23;97351.09;5034401;28;20042;-70
2023/08/08 06:29:01;;;;;;;0.20;0.20;;;;;;;12.34;80.31;97354.81;5032192;28;20064;-70
2023/08/08 06:31:30;;;;;;;0.10;0.10;;;;;;;12.39;80.08;97349.63;5034448;28;20049;-70
2023/08/08 06:33:59;;;;;;;0.22;0.22;;;;;;;12.46;79.98;97352.25;5034676;28;20221;-70
2023/08/08 06:36:27;;;;;;;0.40;0.40;;;;;;;12.48;80.01;97350.19;5034404;28;20272;-70
2023/08/08 06:38:54;;;;;;;0.20;0.20;;;;;;;12.59;79.82;97357.56;5033895;28;20037;-70
2023/08/08 06:41:22;;;;;;;0.08;0.08;;;;;;;12.70;79.58;97346.19;5034518;28;20120;-70
2023/08/08 06:43:49;;;;;;;0.20;0.20;;;;;;;12.73;79.32;97348.44;5034348;28;20044;-70
2023/08/08 06:46:20;;;;;;;0.20;0.20;;;;;;;12.76;78.75;97353.38;5032566;28;20120;-70
2023/08/08 06:48:47;;;;;;;0.20;0.20;;;;;;;12.80;78.91;97357.25;5033935;28;20037;-70
2023/08/08 06:51:17;;;;;;;0.10;0.10;;;;;;;12.78;78.76;97355.81;5033934;28;20071;-70
2023/08/08 06:53:44;;;;;;;0.20;0.20;;;;;;;12.83;78.18;97351.47;5034077;28;20069;-70
2023/08/08 06:56:12;;;;;;;0.10;0.10;;;;;;;12.79;77.92;97344.88;5033864;28;20053;-70
2023/08/08 06:58:40;;;;;;;0.00;0.00;;;;;;;12.88;77.91;97346.28;5033272;28;20176;-70
2023/08/08 07:01:07;;;;;;;0.10;0.10;;;;;;;12.97;77.77;97346.88;5033941;28;20076;-70
2023/08/08 07:03:35;;;;;;;0.20;0.20;;;;;;;13.08;77.68;97350.72;5033882;28;20056;-70
2023/08/08 07:06:03;;;;;;;0.20;0.20;;;;;;;13.15;77.60;97346.16;5033817;28;20081;-70
2023/08/08 07:08:32;;;;;;;0.20;0.20;;;;;;;13.24;77.39;97350.22;5033542;28;20033;-70
2023/08/08 07:11:00;;;;;;;0.20;0.20;;;;;;;13.29;76.97;97342.31;5034085;28;20529;-70
2023/08/08 07:13:27;;;;;;;0.17;0.17;;;;;;;13.31;75.91;97342.09;5033494;28;20052;-70
2023/08/08 07:15:55;;;;;;;0.10;0.10;;;;;;;13.38;75.75;97342.91;5033568;28;20045;-70
2023/08/08 07:18:23;;;;;;;0.20;0.20;;;;;;;13.43;76.13;97338.50;5032867;28;20044;-70
2023/08/08 07:20:51;;;;;;;0.20;0.20;;;;;;;13.47;75.71;97341.59;5033436;28;20042;-70
2023/08/08 07:23:18;;;;;;;0.20;0.20;;;;;;;13.55;75.46;97347.50;5028830;28;20498;-70
2023/08/08 07:25:47;;;;;;;0.10;0.10;;;;;;;13.47;75.17;97334.34;5033744;28;20128;-70
2023/08/08 07:28:18;;;;;;;0.10;0.10;;;;;;;13.47;74.94;97339.72;5027291;28;20141;-70
2023/08/08 07:30:45;;;;;;;0.20;0.20;;;;;;;13.53;74.50;97340.69;5033146;28;20049;-70
2023/08/08 07:33:14;;;;;;;0.15;0.15;;;;;;;13.59;74.88;97339.84;5033297;28;20060;-70
2023/08/08 07:35:42;;;;;;;0.10;0.10;;;;;;;13.72;74.27;97336.19;5033346;28;20080;-70
2023/08/08 07:38:09;;;;;;;0.20;0.20;;;;;;;13.80;73.55;97338.59;5033957;28;20069;-70
2023/08/08 07:40:37;;;;;;;0.20;0.20;;;;;;;13.88;73.31;97328.41;5033119;28;20132;-70
2023/08/08 07:43:06;;;;;;;0.20;0.20;;;;;;;13.99;73.34;97323.34;5032497;28;20077;-70
2023/08/08 07:45:34;;;;;;;0.22;0.22;;;;;;;14.11;72.86;97325.06;5033038;28;20390;-70
2023/08/08 07:48:01;;;;;;;0.25;0.25;;;;;;;14.14;71.81;97329.97;5034283;28;20060;-70
2023/08/08 07:50:29;;;;;;;0.20;0.20;;;;;;;14.26;70.73;97319.31;5035020;28;20091;-70
2023/08/08 07:52:57;;;;;;;0.10;0.10;;;;;;;14.39;70.89;97326.38;5035620;28;20041;-69
2023/08/08 07:55:24;;;;;;;0.25;0.25;;;;;;;14.49;70.42;97321.34;5036399;28;20065;-69
2023/08/08 07:57:52;;;;;;;0.10;0.10;;;;;;;14.64;69.49;97327.94;5036792;28;20037;-70
2023/08/08 08:00:21;;;;;;;0.20;0.20;;;;;;;14.73;69.00;97323.09;5036425;28;20387;-70
2023/08/08 08:02:49;;;;;;;0.20;0.20;;;;;;;14.70;67.68;97323.53;5036250;28;20051;-70
2023/08/08 08:05:18;;;;;;;0.22;0.22;;;;;;;14.73;68.12;97322.28;5034586;28;20069;-70
2023/08/08 08:07:45;;;;;;;0.60;0.60;;;;;;;14.87;68.15;97323.72;5032230;28;20522;-69
2023/08/08 08:10:13;;;;;;;0.20;0.20;;;;;;;15.04;68.19;97324.72;5031385;28;20569;-70
2023/08/08 08:12:41;;;;;;;0.10;0.10;;;;;;;15.31;66.99;97317.88;5032342;28;20047;-70
2023/08/08 08:15:10;;;;;;;0.10;0.10;;;;;;;15.36;65.30;97320.72;5032185;28;20049;-69
2023/08/08 08:17:41;;;;;;;0.10;0.10;;;;;;;15.70;66.03;97319.09;5032203;28;20057;-70
2023/08/08 08:20:11;;;;;;;0.17;0.17;;;;;;;15.83;64.97;97315.38;5032129;28;20059;-70
2023/08/08 08:22:39;;;;;;;0.10;0.10;;;;;;;15.98;65.01;97302.25;5032346;28;20402;-70
2023/08/08 08:25:09;;;;;;;0.10;0.10;;;;;;;16.07;64.35;97311.59;5032078;28;20059;-70
2023/08/08 08:27:37;;;;;;;0.20;0.20;;;;;;;16.07;63.12;97306.22;5032160;28;20100;-70
2023/08/08 08:30:06;;;;;;;0.10;0.10;;;;;;;16.10;63.44;97310.28;5031917;28;20386;-70
2023/08/08 08:32:34;;;;;;;0.10;0.10;;;;;;;16.19;63.13;97303.50;5032203;28;20049;-70
2023/08/08 08:35:06;;;;;;;0.40;0.40;;;;;;;16.30;62.04;97305.34;5032024;28;20485;-70
2023/08/08 08:37:33;;;;;;;0.15;0.15;;;;;;;16.46;61.08;97306.47;5026271;28;20119;-70
2023/08/08 08:40:04;;;;;;;0.10;0.10;;;;;;;16.53;59.65;97297.19;5031748;28;20049;-70
2023/08/08 08:42:33;;;;;;;0.10;0.10;;;;;;;16.59;58.87;97303.50;5031937;28;20124;-70
2023/08/08 08:45:03;;;;;;;0.10;0.10;;;;;;;16.52;58.57;97290.16;5032044;28;20064;-70
2023/08/08 08:47:32;;;;;;;0.20;0.20;;;;;;;16.51;58.51;97302.00;5032049;28;20045;-70
2023/08/08 08:50:02;;;;;;;0.20;0.20;;;;;;;16.42;57.60;97286.44;5031477;28;20068;-70
2023/08/08 08:52:31;;;;;;;0.10;0.10;;;;;;;16.38;57.12;97294.22;5032133;28;20137;-70
2023/08/08 08:54:59;;;;;;;0.10;0.10;;;;;;;16.29;56.60;97301.03;5029501;28;20044;-70
2023/08/08 08:57:27;;;;;;;0.22;0.22;;;;;;;16.24;57.20;97297.41;5032090;28;20041;-70
2023/08/08 08:59:54;;;;;;;0.10;0.10;;;;;;;16.10;56.60;97291.44;5031659;28;20116;-70
2023/08/08 09:02:22;;;;;;;0.10;0.10;;;;;;;16.12;56.53;97297.41;5031817;28;20393;-70
2023/08/08 09:04:50;;;;;;;0.10;0.10;;;;;;;16.07;56.71;97294.63;5031345;28;20045;-70
2023/08/08 09:07:20;;;;;;;0.10;0.10;;;;;;;16.11;56.68;97293.91;5031564;28;20120;-70
2023/08/08 09:09:49;;;;;;;0.10;0.10;;;;;;;16.29;56.46;97284.88;5030950;28;20060;-70
2023/08/08 09:12:17;;;;;;;0.20;0.20;;;;;;;16.69;55.38;97266.00;5023267;28;20046;-70
2023/08/08 09:14:46;;;;;;;0.10;0.10;;;;;;;16.93;55.20;97280.16;5031288;28;20069;-70
2023/08/08 09:17:15;;;;;;;0.10;0.10;;;;;;;16.86;54.58;97272.25;5031323;28;20196;-70
2023/08/08 09:19:43;;;;;;;0.20;0.20;;;;;;;16.99;53.30;97287.31;5031025;28;20040;-70
2023/08/08 09:22:13;;;;;;;0.30;0.30;;;;;;;16.86;54.24;97291.13;5030818;28;20399;-70
2023/08/08 09:24:41;;;;;;;0.20;0.20;;;;;;;17.10;54.43;97283.72;5031551;28;20040;-70
2023/08/08 09:27:11;;;;;;;0.10;0.10;;;;;;;17.14;54.60;97282.16;5031554;28;20049;-70
2023/08/08 09:29:38;;;;;;;0.17;0.17;;;;;;;17.06;54.58;97279.88;5031274;28;20056;-70
2023/08/08 09:32:07;;;;;;;0.10;0.10;;;;;;;16.96;55.13;97293.16;5031472;28;20042;-70
2023/08/08 09:34:35;;;;;;;0.10;0.10;;;;;;;16.87;56.23;97283.84;5031565;28;20156;-70
2023/08/08 09:37:05;;;;;;;0.10;0.10;;;;;;;16.89;56.66;97279.03;5031936;28;20256;-70
2023/08/08 09:39:34;;;;;;;0.50;0.50;;;;;;;16.85;55.92;97280.56;5031593;28;20701;-70
2023/08/08 09:42:03;;;;;;;0.10;0.10;;;;;;;16.65;57.11;97285.59;5032371;28;20045;-71
2023/08/08 09:44:35;;;;;;;0.20;0.20;;;;;;;16.64;56.18;97286.63;5031159;28;20052;-71
2023/08/08 09:47:02;;;;;;;0.15;0.15;;;;;;;16.58;56.04;97287.59;5031157;28;20056;-71
2023/08/08 09:49:34;;;;;;;0.13;0.13;;;;;;;16.46;57.37;97276.84;5030706;28;20571;-71
2023/08/08 09:52:03;;;;;;;0.10;0.10;;;;;;;16.52;56.83;97287.47;5030956;28;20085;-71
2023/08/08 09:54:31;;;;;;;0.17;0.17;;;;;;;16.50;56.47;97281.53;5030987;28;20132;-71
2023/08/08 09:56:59;;;;;;;0.10;0.10;;;;;;;16.53;55.85;97267.56;5029925;28;20060;-71
2023/08/08 09:59:27;;;;;;;0.10;0.10;;;;;;;16.65;55.69;97261.31;5025977;28;20070;-71
2023/08/08 10:01:57;;;;;;;0.13;0.13;;;;;;;16.83;55.13;97261.13;5020635;28;20513;-71
2023/08/08 10:04:25;;;;;;;0.20;0.10;;;;;;;17.17;54.57;97257.41;5026871;28;20045;-70
2023/08/08 10:06:53;;;;;;;0.10;0.10;;;;;;;17.64;53.56;97248.19;5030432;28;20034;-71
2023/08/08 10:09:21;;;;;;;0.10;0.10;;;;;;;17.70;53.90;97253.38;5029339;28;20120;-71
2023/08/08 10:11:49;;;;;;;0.13;0.13;;;;;;;17.82;53.76;97245.19;5032034;28;20497;-71
2023/08/08 10:14:16;;;;;;;0.20;0.20;;;;;;;18.02;52.16;97242.75;5012632;28;20041;-71
2023/08/08 10:16:45;;;;;;;0.10;0.10;;;;;;;18.24;50.02;97246.28;5026421;28;20045;-71
2023/08/08 10:19:15;;;;;;;0.10;0.10;;;;;;;18.49;49.48;97243.03;5036775;28;20049;-71
2023/08/08 10:21:45;;;;;;;0.10;0.10;;;;;;;18.75;48.64;97238.75;5031468;28;20475;-71
2023/08/08 10:24:13;;;;;;;0.10;0.10;;;;;;;18.85;48.30;97240.75;5023624;28;20135;-71
2023/08/08 10:27:02;;;;;;;0.10;0.10;;;;;;;18.40;48.78;97258.06;5030801;28;20073;-71
2023/08/08 10:29:31;;;;;;;0.10;0.10;;;;;;;18.57;48.54;97249.91;5020813;28;20499;-71
2023/08/08 10:32:00;;;;;;;0.10;0.10;;;;;;;18.87;49.25;97252.13;5030557;28;20131;-71
2023/08/08 10:34:39;;;;;;;0.10;0.10;;;;;;;18.71;48.42;97229.50;5033369;28;20042;-71
2023/08/08 10:37:10;;;;;;;0.10;0.10;;;;;;;18.48;48.84;97249.50;5034432;28;20077;-72
2023/08/08 10:39:38;;;;;;;0.10;0.10;;;;;;;18.48;49.42;97238.69;5033824;28;20037;-71
2023/08/08 10:42:05;;;;;;;0.10;0.10;;;;;;;18.77;48.99;97246.63;5034304;28;20045;-71
2023/08/08 10:44:42;;;;;;;0.10;0.10;;;;;;;19.13;47.14;97240.44;5032786;28;20063;-71
2023/08/08 10:47:12;;;;;;;0.10;0.10;;;;;;;19.21;47.35;97244.56;5034232;28;20052;-71
2023/08/08 10:49:42;;;;;;;0.10;0.10;;;;;;;19.35;46.18;97246.59;5033887;28;20045;-71
2023/08/08 10:52:14;;;;;;;0.10;0.10;;;;;;;19.14;46.48;97233.97;5034070;28;20049;-71
2023/08/08 10:54:42;;;;;;;;;;;;;;;19.36;47.06;97228.47;5034614;28;20051;-71
2023/08/08 10:57:18;;;;;;;0.10;0.10;;;;;;;19.64;46.22;97222.72;5033847;28;19921;-71
2023/08/08 10:59:46;;;;;;;0.10;0.10;;;;;;;19.38;47.11;97231.72;5032240;28;20053;-71
2023/08/08 11:02:15;;;;;;;0.00;0.00;;;;;;;19.14;48.54;97228.56;5034056;28;20052;-71
2023/08/08 11:04:44;;;;;;;0.10;0.10;;;;;;;19.04;48.98;97225.75;5034016;28;20474;-71
2023/08/08 11:07:12;;;;;;;0.10;0.10;;;;;;;19.49;47.61;97224.53;5033778;28;20041;-71
2023/08/08 11:09:39;;;;;;;0.20;0.20;;;;;;;19.73;46.63;97225.75;5033489;28;20084;-71
2023/08/08 11:12:14;;;;;;;0.10;0.10;;;;;;;19.69;45.44;97228.19;5034116;28;20052;-71
2023/08/08 11:14:43;;;;;;;0.10;0.10;;;;;;;19.84;45.83;97219.31;5024925;28;20104;-71
2023/08/08 11:17:11;;;;;;;0.10;0.10;;;;;;;20.08;45.67;97206.97;5029953;28;20073;-71
2023/08/08 11:19:40;;;;;;;0.10;0.10;;;;;;;20.31;45.34;97213.84;5030907;28;20501;-71
2023/08/08 11:22:12;;;;;;;0.10;0.10;;;;;;;20.45;45.00;97211.47;5033244;28;20049;-71
2023/08/08 11:24:40;;;;;;;0.10;0.10;;;;;;;20.60;43.21;97199.84;5033529;28;20099;-71
2023/08/08 11:27:07;;;;;;;0.03;0.03;;;;;;;20.67;42.45;97182.22;5033812;28;20499;-71
2023/08/08 11:29:35;;;;;;;0.10;0.10;;;;;;;20.06;43.60;97211.84;5033495;28;20076;-71
2023/08/08 11:32:04;;;;;;;0.05;0.05;;;;;;;20.22;43.60;97201.88;5033330;28;20041;-71
2023/08/08 11:34:32;;;;;;;0.10;0.10;;;;;;;19.84;43.49;97210.38;5032056;28;20057;-71
2023/08/08 11:37:01;;;;;;;0.08;0.08;;;;;;;19.20;45.11;97219.41;5032889;28;20050;-71
2023/08/08 11:39:30;;;;;;;0.17;0.17;;;;;;;19.05;46.01;97208.47;5032166;28;20041;-70